createdAt,value
2022-09-12T00:00:07.368Z,33.33
2022-09-12T00:02:33.766Z,29.73
2022-09-12T00:05:00.197Z,27.77
2022-09-12T00:07:26.611Z,30.65
2022-09-12T00:09:53.018Z,27.55
2022-09-12T00:12:19.495Z,29.47
2022-09-12T00:14:45.918Z,27.27
2022-09-12T00:17:12.366Z,28.88
2022-09-12T00:19:38.772Z,27.70
2022-09-12T00:22:05.150Z,29.85
2022-09-12T00:24:31.559Z,31.70
2022-09-12T00:26:57.897Z,30.88
2022-09-12T00:29:24.336Z,29.45
2022-09-12T00:31:50.847Z,27.75
2022-09-12T00:34:17.526Z,26.67
2022-09-12T00:36:44.036Z,32.67
2022-09-12T00:39:17.181Z,29.88
2022-09-12T00:41:44.471Z,30.60
2022-09-12T00:44:10.839Z,27.95
2022-09-12T00:46:48.758Z,29.13
2022-09-12T00:49:21.317Z,31.00
2022-09-12T00:51:52.625Z,30.13
2022-09-12T00:54:24.005Z,32.20
2022-09-12T00:56:55.912Z,30.63
2022-09-12T00:59:28.516Z,30.85
2022-09-12T01:01:56.197Z,28.97
2022-09-12T01:04:25.780Z,29.98
2022-09-12T01:06:54.352Z,33.13
2022-09-12T01:09:22.772Z,31.73
2022-09-12T01:11:51.131Z,35.08
2022-09-12T01:14:18.029Z,32.07
2022-09-12T01:16:45.722Z,31.17
2022-09-12T01:19:43.135Z,30.45
2022-09-12T01:22:31.204Z,34.83
2022-09-12T01:25:32.967Z,32.70
2022-09-12T01:28:21.327Z,34.40
2022-09-12T01:31:05.799Z,32.55
2022-09-12T01:33:39.872Z,32.33
2022-09-12T01:37:01.673Z,34.08
2022-09-12T01:39:47.604Z,32.20
2022-09-12T01:42:26.831Z,34.37
2022-09-12T01:45:01.711Z,34.45
2022-09-12T01:47:39.554Z,33.30
2022-09-12T01:50:10.643Z,33.53
2022-09-12T01:52:54.589Z,33.78
2022-09-12T01:55:26.678Z,36.93
2022-09-12T01:58:05.031Z,36.80
2022-09-12T02:00:35.494Z,32.17
2022-09-12T02:03:09.514Z,36.70
2022-09-12T02:06:10.306Z,36.45
2022-09-12T02:08:43.444Z,36.03
2022-09-12T02:11:11.668Z,37.25
2022-09-12T02:13:50.584Z,35.88
2022-09-12T02:16:34.528Z,36.88
2022-09-12T02:19:09.580Z,34.72
2022-09-12T02:21:39.994Z,35.87
2022-09-12T02:24:09.633Z,36.90
2022-09-12T02:26:46.488Z,41.10
2022-09-12T02:29:13.054Z,38.42
2022-09-12T02:31:47.923Z,40.92
2022-09-12T02:34:38.758Z,41.57
2022-09-12T02:37:14.534Z,40.13
2022-09-12T02:39:44.968Z,39.10
2022-09-12T02:42:12.274Z,38.10
2022-09-12T02:44:39.288Z,40.72
2022-09-12T02:47:11.019Z,39.13
2022-09-12T02:49:37.499Z,41.25
2022-09-12T02:52:04.041Z,39.65
2022-09-12T02:54:31.214Z,40.25
2022-09-12T02:56:57.679Z,42.17
2022-09-12T02:59:25.092Z,41.27
2022-09-12T03:02:11.998Z,40.30
2022-09-12T03:04:48.939Z,42.03
2022-09-12T03:07:39.927Z,40.50
2022-09-12T03:10:24.872Z,43.42
2022-09-12T03:13:20.382Z,42.40
2022-09-12T03:15:57.820Z,40.97
2022-09-12T03:18:32.868Z,36.88
2022-09-12T03:21:18.084Z,41.55
2022-09-12T03:23:59.703Z,40.45
2022-09-12T03:26:32.945Z,41.47
2022-09-12T03:29:01.698Z,43.00
2022-09-12T03:31:28.224Z,43.92
2022-09-12T03:33:54.710Z,42.85
2022-09-12T03:36:24.578Z,44.33
2022-09-12T03:38:51.690Z,44.10
2022-09-12T03:41:18.499Z,43.10
2022-09-12T03:43:45.498Z,41.83
2022-09-12T03:46:12.319Z,45.00
2022-09-12T03:48:38.800Z,45.40
2022-09-12T03:51:07.804Z,46.00
2022-09-12T03:53:34.690Z,46.50
2022-09-12T03:56:06.566Z,44.40
2022-09-12T03:58:32.986Z,45.90
2022-09-12T04:00:59.522Z,44.03
2022-09-12T04:03:25.966Z,46.13
2022-09-12T04:05:52.370Z,45.60
2022-09-12T04:08:19.023Z,46.60
2022-09-12T04:10:46.971Z,47.95
2022-09-12T04:13:13.446Z,45.67
2022-09-12T04:15:39.845Z,48.63
2022-09-12T04:18:06.345Z,46.50
2022-09-12T04:20:32.755Z,41.05
2022-09-12T04:22:59.163Z,44.45
2022-09-12T04:25:25.576Z,47.90
2022-09-12T04:27:52.027Z,44.37
2022-09-12T04:30:19.008Z,41.85
2022-09-12T04:32:45.435Z,48.70
2022-09-12T04:35:11.794Z,46.28
2022-09-12T04:37:38.218Z,48.05
2022-09-12T04:40:04.922Z,46.97
2022-09-12T04:42:31.368Z,51.10
2022-09-12T04:44:57.767Z,43.75
2022-09-12T04:47:24.112Z,50.90
2022-09-12T04:49:50.512Z,50.83
2022-09-12T04:52:16.970Z,47.10
2022-09-12T04:54:43.439Z,49.53
2022-09-12T04:57:10.522Z,47.45
2022-09-12T04:59:38.370Z,45.65
2022-09-12T05:02:04.869Z,49.05
2022-09-12T05:04:31.584Z,51.20
2022-09-12T05:06:58.083Z,54.33
2022-09-12T05:09:24.565Z,51.42
2022-09-12T05:12:06.884Z,48.15
2022-09-12T05:14:34.246Z,54.83
2022-09-12T05:17:01.525Z,48.50
2022-09-12T05:19:29.382Z,50.30
2022-09-12T05:21:55.795Z,49.92
2022-09-12T05:24:22.268Z,57.63
2022-09-12T05:26:49.085Z,49.35
2022-09-12T05:29:15.909Z,47.63
2022-09-12T05:31:42.446Z,53.38
2022-09-12T05:34:09.460Z,53.17
2022-09-12T05:36:36.304Z,49.70
2022-09-12T05:39:03.659Z,59.85
2022-09-12T05:41:31.953Z,56.73
2022-09-12T05:44:00.779Z,58.33
2022-09-12T05:46:29.989Z,53.45
2022-09-12T05:48:56.948Z,51.72
2022-09-12T05:51:28.872Z,51.10
2022-09-12T05:53:57.591Z,51.20
2022-09-12T05:56:26.431Z,51.63
2022-09-12T05:58:57.100Z,55.10
2022-09-12T06:01:24.259Z,53.55
2022-09-12T06:03:53.185Z,55.33
2022-09-12T06:06:22.392Z,53.50
2022-09-12T06:08:51.378Z,55.50
2022-09-12T06:11:21.041Z,57.20
2022-09-12T06:13:47.897Z,61.58
2022-09-12T06:16:16.976Z,55.05
2022-09-12T06:18:48.947Z,58.77
2022-09-12T06:21:16.040Z,57.42
2022-09-12T06:23:43.024Z,54.38
2022-09-12T06:26:10.667Z,52.95
2022-09-12T06:28:39.732Z,52.08
2022-09-12T06:31:11.455Z,54.77
2022-09-12T06:33:40.758Z,56.97
2022-09-12T06:36:16.435Z,51.25
2022-09-12T06:38:43.105Z,49.97
2022-09-12T06:41:11.848Z,50.90
2022-09-12T06:43:39.124Z,55.30
2022-09-12T06:46:06.048Z,49.75
2022-09-12T06:48:32.603Z,47.70
2022-09-12T06:51:09.065Z,47.17
2022-09-12T06:53:36.209Z,45.38
2022-09-12T06:56:06.210Z,44.67
2022-09-12T06:58:33.999Z,44.53
2022-09-12T07:01:06.416Z,37.70
2022-09-12T07:03:34.180Z,38.20
2022-09-12T07:06:09.776Z,40.47
2022-09-12T07:08:36.717Z,38.07
2022-09-12T07:11:10.539Z,37.10
2022-09-12T07:13:37.438Z,38.58
2022-09-12T07:16:05.563Z,38.63
2022-09-12T07:18:35.355Z,36.63
2022-09-12T07:21:02.663Z,36.27
2022-09-12T07:23:32.313Z,38.05
2022-09-12T07:26:00.733Z,33.00
2022-09-12T07:28:29.554Z,35.58
2022-09-12T07:30:56.984Z,37.35
2022-09-12T07:33:27.344Z,33.33
2022-09-12T07:35:54.068Z,35.75
2022-09-12T07:38:21.733Z,34.03
2022-09-12T07:40:48.802Z,33.42
2022-09-12T07:43:15.265Z,31.98
2022-09-12T07:45:41.760Z,33.30
2022-09-12T07:48:09.114Z,29.23
2022-09-12T07:50:36.236Z,33.42
2022-09-12T07:53:04.119Z,31.75
2022-09-12T07:55:31.439Z,31.40
2022-09-12T07:57:57.991Z,29.93
2022-09-12T08:00:24.426Z,32.35
2022-09-12T08:02:52.219Z,30.10
2022-09-12T08:05:19.448Z,30.90
2022-09-12T08:07:45.957Z,33.45
2022-09-12T08:10:12.726Z,32.20
2022-09-12T08:12:39.160Z,27.48
2022-09-12T08:15:06.085Z,28.08
2022-09-12T08:17:32.555Z,27.30
2022-09-12T08:19:58.951Z,28.13
2022-09-12T08:22:25.370Z,26.40
2022-09-12T08:24:51.818Z,25.23
2022-09-12T08:27:18.848Z,24.55
2022-09-12T08:29:45.298Z,23.05
2022-09-12T08:32:11.768Z,25.13
2022-09-12T08:34:38.221Z,23.40
2022-09-12T08:37:04.762Z,21.40
2022-09-12T08:39:31.356Z,21.38
2022-09-12T08:42:06.257Z,20.42
2022-09-12T08:45:04.245Z,19.95
2022-09-12T08:47:39.938Z,19.30
2022-09-12T08:50:09.229Z,19.35
2022-09-12T08:52:54.076Z,19.98
2022-09-12T08:55:37.531Z,18.45
2022-09-12T08:58:19.342Z,16.17
2022-09-12T09:00:54.735Z,17.17
2022-09-12T09:03:36.959Z,16.67
2022-09-12T09:06:29.369Z,16.73
2022-09-12T09:09:08.137Z,18.42
2022-09-12T09:11:40.813Z,15.15
2022-09-12T09:14:20.255Z,17.47
2022-09-12T09:16:49.966Z,14.85
2022-09-12T09:19:16.346Z,14.35
2022-09-12T09:21:59.825Z,15.55
2022-09-12T09:24:39.782Z,11.88
2022-09-12T09:27:40.558Z,12.00
2022-09-12T09:30:19.993Z,13.88
2022-09-12T09:32:51.036Z,12.75
2022-09-12T09:35:20.552Z,12.13
2022-09-12T09:38:24.546Z,11.07
2022-09-12T09:40:50.979Z,9.17
2022-09-12T09:43:25.981Z,10.20
2022-09-12T09:45:52.941Z,10.80
2022-09-12T09:48:44.434Z,10.25
2022-09-12T09:51:11.783Z,8.32
2022-09-12T09:53:49.016Z,9.17
2022-09-12T09:56:39.212Z,8.70
2022-09-12T09:59:18.057Z,8.27
2022-09-12T10:01:45.392Z,10.10
2022-09-12T10:04:19.293Z,8.60
2022-09-12T10:06:45.825Z,10.17
2022-09-12T10:09:14.938Z,9.63
2022-09-12T10:11:45.690Z,8.85
2022-09-12T10:14:29.659Z,9.13
2022-09-12T10:16:56.433Z,8.48
2022-09-12T10:19:33.097Z,8.83
2022-09-12T10:22:00.152Z,8.77
2022-09-12T10:24:34.873Z,8.43
2022-09-12T10:27:12.286Z,8.57
2022-09-12T10:29:46.626Z,9.50
2022-09-12T10:32:21.318Z,10.27
2022-09-12T10:34:48.013Z,9.15
2022-09-12T10:37:23.611Z,9.73
2022-09-12T10:39:55.973Z,10.02
2022-09-12T10:42:45.973Z,8.75
2022-09-12T10:45:41.490Z,9.03
2022-09-12T10:48:23.001Z,9.32
2022-09-12T10:50:49.473Z,8.27
2022-09-12T10:53:21.716Z,8.88
2022-09-12T10:55:51.186Z,8.10
2022-09-12T10:58:31.999Z,8.03
2022-09-12T11:01:23.190Z,8.02
2022-09-12T11:04:26.439Z,7.25
2022-09-12T11:07:19.525Z,7.97
2022-09-12T11:10:04.724Z,9.52
2022-09-12T11:12:55.866Z,7.60
2022-09-12T11:15:46.743Z,7.78
2022-09-12T11:18:49.131Z,8.52
2022-09-12T11:21:34.031Z,9.80
2022-09-12T11:24:15.484Z,9.25
2022-09-12T11:26:57.294Z,10.13
2022-09-12T11:29:49.082Z,9.43
2022-09-12T11:32:46.302Z,12.55
2022-09-12T11:35:17.624Z,9.43
2022-09-12T11:38:02.999Z,7.97
2022-09-12T11:40:42.094Z,7.53
2022-09-12T11:43:14.671Z,7.88
2022-09-12T11:45:45.919Z,8.35
2022-09-12T11:48:19.872Z,8.27
2022-09-12T11:50:46.307Z,10.57
2022-09-12T11:53:31.672Z,7.80
2022-09-12T11:56:06.006Z,7.30
2022-09-12T11:58:32.697Z,7.25
2022-09-12T12:01:21.504Z,8.43
2022-09-12T12:03:49.224Z,8.48
2022-09-12T12:06:26.868Z,8.77
2022-09-12T12:08:53.881Z,8.35
2022-09-12T12:11:44.722Z,10.55
2022-09-12T12:14:22.510Z,11.30
2022-09-12T12:16:50.116Z,9.38
2022-09-12T12:19:16.478Z,8.10
2022-09-12T12:21:52.445Z,6.97
2022-09-12T12:24:25.962Z,7.18
2022-09-12T12:27:03.629Z,7.90
2022-09-12T12:29:44.113Z,7.30
2022-09-12T12:32:10.783Z,7.97
2022-09-12T12:34:38.617Z,7.32
2022-09-12T12:37:20.303Z,8.00
2022-09-12T12:39:46.780Z,10.50
2022-09-12T12:42:35.051Z,8.77
2022-09-12T12:45:04.077Z,7.90
2022-09-12T12:47:36.525Z,8.85
2022-09-12T12:50:10.447Z,10.82
2022-09-12T12:52:58.729Z,7.65
2022-09-12T12:55:35.753Z,16.33
2022-09-12T12:58:03.512Z,8.07
2022-09-12T13:00:40.082Z,7.72
2022-09-12T13:03:11.234Z,8.55
2022-09-12T13:05:46.866Z,6.72
2022-09-12T13:08:19.305Z,6.70
2022-09-12T13:10:54.385Z,6.57
2022-09-12T13:13:31.315Z,7.10
2022-09-12T13:15:58.252Z,7.40
2022-09-12T13:18:38.906Z,8.07
2022-09-12T13:21:13.200Z,6.95
2022-09-12T13:23:40.257Z,7.53
2022-09-12T13:26:25.197Z,6.50
2022-09-12T13:29:19.254Z,6.65
2022-09-12T13:31:49.013Z,6.10
2022-09-12T13:34:22.504Z,6.78
2022-09-12T13:37:16.773Z,6.03
2022-09-12T13:40:16.984Z,7.07
2022-09-12T13:42:48.941Z,6.88
2022-09-12T13:45:20.033Z,7.57
2022-09-12T13:47:50.439Z,6.88
2022-09-12T13:50:22.689Z,7.80
2022-09-12T13:52:55.721Z,8.55
2022-09-12T13:55:41.211Z,7.05
2022-09-12T13:58:34.175Z,10.98
2022-09-12T14:01:14.087Z,6.75
2022-09-12T14:03:43.265Z,6.47
2022-09-12T14:06:10.238Z,7.55
2022-09-12T14:08:40.283Z,7.22
2022-09-12T14:11:29.518Z,9.23
2022-09-12T14:13:59.924Z,6.57
2022-09-12T14:16:26.380Z,7.80
2022-09-12T14:18:52.887Z,5.88
2022-09-12T14:21:28.090Z,6.45
2022-09-12T14:23:54.762Z,6.20
2022-09-12T14:26:21.286Z,7.35
2022-09-12T14:28:48.182Z,6.87
2022-09-12T14:31:14.628Z,6.60
2022-09-12T14:34:08.595Z,7.80
2022-09-12T14:37:06.290Z,6.22
2022-09-12T14:39:44.745Z,7.70
2022-09-12T14:42:22.337Z,5.97
2022-09-12T14:45:15.555Z,6.65
2022-09-12T14:47:43.948Z,5.85
2022-09-12T14:50:24.408Z,6.10
2022-09-12T14:53:20.833Z,5.80
2022-09-12T14:55:58.685Z,6.53
2022-09-12T14:58:28.148Z,6.82
2022-09-12T15:01:01.636Z,6.07
2022-09-12T15:03:32.118Z,6.15
2022-09-12T15:06:00.056Z,5.80
2022-09-12T15:08:26.986Z,5.93
2022-09-12T15:10:53.478Z,7.15
2022-09-12T15:13:22.783Z,7.18
2022-09-12T15:15:52.528Z,5.70
2022-09-12T15:18:20.538Z,6.85
2022-09-12T15:20:50.729Z,5.93
2022-09-12T15:23:38.815Z,5.97
2022-09-12T15:26:05.967Z,7.55
2022-09-12T15:28:33.543Z,6.82
2022-09-12T15:31:24.382Z,6.53
2022-09-12T15:33:51.142Z,7.63
2022-09-12T15:36:20.509Z,6.80
2022-09-12T15:38:47.838Z,6.95
2022-09-12T15:41:20.664Z,10.05
2022-09-12T15:43:47.987Z,6.82
2022-09-12T15:46:16.016Z,6.80
2022-09-12T15:48:42.784Z,5.93
2022-09-12T15:51:15.626Z,7.82
2022-09-12T15:53:43.261Z,5.68
2022-09-12T15:56:09.835Z,7.22
2022-09-12T15:58:36.517Z,9.10
2022-09-12T16:01:03.518Z,9.40
2022-09-12T16:03:30.529Z,6.60
2022-09-12T16:05:59.250Z,7.20
2022-09-12T16:08:25.872Z,8.68
2022-09-12T16:10:59.084Z,8.20
2022-09-12T16:13:26.537Z,5.72
2022-09-12T16:15:57.335Z,6.90
2022-09-12T16:18:24.486Z,6.28
2022-09-12T16:20:54.746Z,6.60
2022-09-12T16:23:21.588Z,7.63
2022-09-12T16:25:58.164Z,6.63
2022-09-12T16:28:24.696Z,6.95
2022-09-12T16:30:58.858Z,6.90
2022-09-12T16:33:26.436Z,6.00
2022-09-12T16:35:53.122Z,6.60
2022-09-12T16:38:19.698Z,6.55
2022-09-12T16:40:48.614Z,7.15
2022-09-12T16:43:15.041Z,6.72
2022-09-12T16:45:41.550Z,7.20
2022-09-12T16:48:08.124Z,6.40
2022-09-12T16:50:34.657Z,7.22
2022-09-12T16:53:01.172Z,7.25
2022-09-12T16:55:27.645Z,8.35
2022-09-12T16:57:54.251Z,7.07
2022-09-12T17:00:21.100Z,8.10
2022-09-12T17:02:47.599Z,7.38
2022-09-12T17:05:15.298Z,6.28
2022-09-12T17:07:42.254Z,6.60
2022-09-12T17:10:08.943Z,6.20
2022-09-12T17:12:35.444Z,6.83
2022-09-12T17:15:01.933Z,7.28
2022-09-12T17:17:28.363Z,6.43
2022-09-12T17:19:54.773Z,8.20
2022-09-12T17:22:21.194Z,6.70
2022-09-12T17:24:47.987Z,7.60
2022-09-12T17:27:14.463Z,7.95
2022-09-12T17:29:40.872Z,6.55
2022-09-12T17:32:07.318Z,6.70
2022-09-12T17:34:33.813Z,7.10
2022-09-12T17:37:00.222Z,7.00
2022-09-12T17:39:26.790Z,7.38
2022-09-12T17:41:53.280Z,6.43
2022-09-12T17:44:19.832Z,6.82
2022-09-12T17:46:46.328Z,8.38
2022-09-12T17:49:18.091Z,7.33
2022-09-12T17:51:44.577Z,6.95
2022-09-12T17:54:14.415Z,6.95
2022-09-12T17:56:40.933Z,6.55
2022-09-12T17:59:08.952Z,7.28
2022-09-12T18:01:35.486Z,7.17
2022-09-12T18:04:02.124Z,6.45
2022-09-12T18:06:30.252Z,7.78
2022-09-12T18:09:00.659Z,7.00
2022-09-12T18:11:27.108Z,7.20
2022-09-12T18:13:53.634Z,7.40
2022-09-12T18:16:20.366Z,7.80
2022-09-12T18:18:46.961Z,7.45
2022-09-12T18:21:13.434Z,6.95
2022-09-12T18:23:39.917Z,7.30
2022-09-12T18:26:08.978Z,7.67
2022-09-12T18:28:37.526Z,7.05
2022-09-12T18:31:05.185Z,6.97
2022-09-12T18:33:31.622Z,9.20
2022-09-12T18:36:04.702Z,7.85
2022-09-12T18:38:31.406Z,8.17
2022-09-12T18:41:13.121Z,8.57
2022-09-12T18:43:39.705Z,8.23
2022-09-12T18:46:14.796Z,8.23
2022-09-12T18:48:41.918Z,7.40
2022-09-12T18:51:15.795Z,6.90
2022-09-12T18:53:42.745Z,7.75
2022-09-12T18:56:12.138Z,8.93
2022-09-12T18:58:40.245Z,9.13
2022-09-12T19:01:15.337Z,8.82
2022-09-12T19:03:42.098Z,8.80
2022-09-12T19:06:17.525Z,7.63
2022-09-12T19:08:45.394Z,12.93
2022-09-12T19:11:12.221Z,8.70
2022-09-12T19:13:41.986Z,8.18
2022-09-12T19:16:11.133Z,9.90
2022-09-12T19:18:39.078Z,7.90
2022-09-12T19:21:07.527Z,9.15
2022-09-12T19:23:35.227Z,8.32
2022-09-12T19:26:06.240Z,8.10
2022-09-12T19:28:32.942Z,8.63
2022-09-12T19:30:59.457Z,11.68
2022-09-12T19:33:26.084Z,10.10
2022-09-12T19:35:52.573Z,10.85
2022-09-12T19:38:19.295Z,9.10
2022-09-12T19:40:59.080Z,11.23
2022-09-12T19:43:25.928Z,8.73
2022-09-12T19:45:52.900Z,10.23
2022-09-12T19:48:21.034Z,10.65
2022-09-12T19:50:48.436Z,9.90
2022-09-12T19:53:16.023Z,9.70
2022-09-12T19:55:43.287Z,9.38
2022-09-12T19:58:09.718Z,10.07
2022-09-12T20:00:36.937Z,12.80
2022-09-12T20:03:04.727Z,9.73
2022-09-12T20:05:34.600Z,10.00
2022-09-12T20:08:01.671Z,11.05
2022-09-12T20:10:28.315Z,13.27
2022-09-12T20:12:54.729Z,11.43
2022-09-12T20:15:21.219Z,9.43
2022-09-12T20:17:48.110Z,10.83
2022-09-12T20:20:14.545Z,10.02
2022-09-12T20:22:40.983Z,11.30
2022-09-12T20:25:08.027Z,11.05
2022-09-12T20:27:34.468Z,11.98
2022-09-12T20:30:00.882Z,10.00
2022-09-12T20:32:27.303Z,11.52
2022-09-12T20:34:53.721Z,11.23
2022-09-12T20:37:20.203Z,13.13
2022-09-12T20:39:50.627Z,11.45
2022-09-12T20:42:17.318Z,30.67
2022-09-12T20:44:43.788Z,14.57
2022-09-12T20:47:10.232Z,13.00
2022-09-12T20:49:36.693Z,11.38
2022-09-12T20:52:03.315Z,10.80
2022-09-12T20:54:29.731Z,13.60
2022-09-12T20:56:56.169Z,12.85
2022-09-12T20:59:22.600Z,10.82
2022-09-12T21:01:49.580Z,11.75
2022-09-12T21:04:16.173Z,10.73
2022-09-12T21:06:42.612Z,12.30
2022-09-12T21:09:09.177Z,11.20
2022-09-12T21:11:35.664Z,11.70
2022-09-12T21:14:02.234Z,12.10
2022-09-12T21:16:28.717Z,11.35
2022-09-12T21:18:57.712Z,11.70
2022-09-12T21:21:25.312Z,15.05
2022-09-12T21:23:51.904Z,10.63
2022-09-12T21:26:18.950Z,10.50
2022-09-12T21:28:45.435Z,11.82
2022-09-12T21:31:11.904Z,11.30
2022-09-12T21:33:38.426Z,11.40
2022-09-12T21:36:06.308Z,11.75
2022-09-12T21:38:33.147Z,11.63
2022-09-12T21:41:07.767Z,11.52
2022-09-12T21:43:34.734Z,13.60
2022-09-12T21:46:02.171Z,12.68
2022-09-12T21:48:29.045Z,13.52
2022-09-12T21:50:55.432Z,12.05
2022-09-12T21:53:22.361Z,11.88
2022-09-12T21:55:49.116Z,11.87
2022-09-12T21:58:16.013Z,13.27
2022-09-12T22:00:43.214Z,17.23
2022-09-12T22:03:10.690Z,13.82
2022-09-12T22:05:38.577Z,13.77
2022-09-12T22:08:05.047Z,16.43
2022-09-12T22:10:31.450Z,14.52
2022-09-12T22:12:58.109Z,13.98
2022-09-12T22:15:41.453Z,14.25
2022-09-12T22:18:08.208Z,15.73
2022-09-12T22:20:34.608Z,15.20
2022-09-12T22:23:01.063Z,15.43
2022-09-12T22:25:27.632Z,15.23
2022-09-12T22:27:54.877Z,15.25
2022-09-12T22:30:22.111Z,14.80
2022-09-12T22:32:49.957Z,16.60
2022-09-12T22:35:18.363Z,14.98
2022-09-12T22:37:44.824Z,16.80
2022-09-12T22:40:11.773Z,19.52
2022-09-12T22:42:38.478Z,15.93
2022-09-12T22:45:06.006Z,16.33
2022-09-12T22:47:32.459Z,15.88
2022-09-12T22:49:58.871Z,15.70
2022-09-12T22:52:25.368Z,14.70
2022-09-12T22:54:51.847Z,17.17
2022-09-12T22:57:19.102Z,18.73
2022-09-12T22:59:45.580Z,17.58
2022-09-12T23:02:12.036Z,16.88
2022-09-12T23:04:38.475Z,15.57
2022-09-12T23:07:05.079Z,19.45
2022-09-12T23:09:35.241Z,17.27
2022-09-12T23:12:02.702Z,18.75
2022-09-12T23:14:29.362Z,16.88
2022-09-12T23:16:55.786Z,17.10
2022-09-12T23:19:22.382Z,16.42
2022-09-12T23:21:48.985Z,18.20
2022-09-12T23:24:15.425Z,18.92
2022-09-12T23:26:41.927Z,19.60
2022-09-12T23:29:08.892Z,16.90
2022-09-12T23:31:35.429Z,17.70
2022-09-12T23:34:04.829Z,17.30
2022-09-12T23:36:31.387Z,18.67
2022-09-12T23:38:57.907Z,19.88
2022-09-12T23:41:24.716Z,20.30
2022-09-12T23:43:51.257Z,17.13
2022-09-12T23:46:19.250Z,18.50
2022-09-12T23:48:45.894Z,17.80
2022-09-12T23:51:12.836Z,18.65
2022-09-12T23:53:39.875Z,18.20
2022-09-12T23:56:06.503Z,17.73
2022-09-12T23:58:33.155Z,18.50
